Time;durP1;ratioP1;P1;durP2;ratioP2;P2;SDS_P1;SDS_P2;PMS_P1;PMS_P2;Temp;Humidity;BMP_temperature;BMP_pressure;BME280_temperature;BME280_humidity;BME280_pressure;Samples;Min_cycle;Max_cycle;Signal;HPM_P1;HPM_P2
2022/01/10 00:00:34;;;;;;;38.03;5.90;;;5.70;99.90;;;;;;5075184;28;20030;-74
2022/01/10 00:03:01;;;;;;;36.90;5.60;;;5.70;99.90;;;;;;5074338;28;20409;-75
2022/01/10 00:05:26;;;;;;;27.00;5.18;;;5.70;99.90;;;;;;5073925;28;20112;-74
2022/01/10 00:07:52;;;;;;;28.08;5.05;;;5.60;99.90;;;;;;5073892;28;20453;-74
2022/01/10 00:10:18;;;;;;;32.88;5.10;;;5.70;99.90;;;;;;5073498;28;20025;-75
2022/01/10 00:12:45;;;;;;;28.13;5.03;;;5.70;99.90;;;;;;5073207;28;20103;-74
2022/01/10 00:15:11;;;;;;;31.58;5.00;;;5.70;99.90;;;;;;5073284;28;20024;-74
2022/01/10 00:17:38;;;;;;;30.25;5.10;;;5.70;99.90;;;;;;5072767;28;20044;-74
2022/01/10 00:20:11;;;;;;;26.23;5.63;;;5.70;99.90;;;;;;5071712;28;20032;-74
2022/01/10 00:22:39;;;;;;;33.38;6.03;;;5.80;99.90;;;;;;5072451;28;20024;-74
2022/01/10 00:25:06;;;;;;;26.70;5.45;;;5.80;99.90;;;;;;5076900;28;20081;-73
2022/01/10 00:27:32;;;;;;;37.45;6.18;;;5.80;99.90;;;;;;5087362;28;20076;-75
2022/01/10 00:29:57;;;;;;;34.15;5.53;;;5.80;99.90;;;;;;5087926;28;20055;-73
2022/01/10 00:32:23;;;;;;;30.00;5.55;;;5.80;99.90;;;;;;5089796;28;20036;-75
2022/01/10 00:34:49;;;;;;;38.05;5.88;;;5.80;99.90;;;;;;5074314;28;20043;-75
2022/01/10 00:37:15;;;;;;;37.22;5.32;;;5.80;99.90;;;;;;5074090;28;20033;-75
2022/01/10 00:39:41;;;;;;;25.05;5.03;;;5.80;99.90;;;;;;5073321;28;20112;-75
2022/01/10 00:42:07;;;;;;;36.92;5.57;;;5.80;99.90;;;;;;5071520;28;20100;-75
2022/01/10 00:44:38;;;;;;;28.30;5.68;;;5.80;99.90;;;;;;5072460;28;20099;-74
2022/01/10 00:47:04;;;;;;;28.27;5.22;;;5.80;99.90;;;;;;5072273;28;20024;-74
2022/01/10 00:49:30;;;;;;;30.25;5.43;;;5.80;99.90;;;;;;5072671;28;20029;-74
2022/01/10 00:51:55;;;;;;;23.40;5.22;;;5.80;99.90;;;;;;5072770;28;20051;-74
2022/01/10 00:54:21;;;;;;;29.67;5.03;;;5.80;99.90;;;;;;5072858;28;20070;-74
2022/01/10 00:56:46;;;;;;;27.27;5.47;;;5.80;99.90;;;;;;5072639;28;20024;-74
2022/01/10 00:59:12;;;;;;;31.88;5.63;;;5.80;99.90;;;;;;5072341;28;20098;-74
2022/01/10 01:01:38;;;;;;;19.73;5.13;;;5.80;99.90;;;;;;5072023;28;20070;-73
2022/01/10 01:04:03;;;;;;;35.45;5.90;;;5.80;99.90;;;;;;5072477;28;20362;-74
2022/01/10 01:06:29;;;;;;;23.13;5.15;;;5.80;99.90;;;;;;5071833;28;20123;-74
2022/01/10 01:09:00;;;;;;;22.38;5.22;;;5.80;99.90;;;;;;5071631;28;20020;-75
2022/01/10 01:14:10;;;;;;;22.17;5.00;;;5.80;99.90;;;;;;5072538;28;20028;-75
2022/01/10 01:24:26;;;;;;;27.73;5.85;;;5.90;99.90;;;;;;5072249;28;20119;-75
2022/01/10 01:26:53;;;;;;;33.50;5.57;;;5.90;99.90;;;;;;5071486;28;20060;-75
2022/01/10 01:29:23;;;;;;;22.38;4.78;;;5.90;99.90;;;;;;5072852;28;20028;-74
2022/01/10 01:31:48;;;;;;;30.60;5.30;;;6.00;99.90;;;;;;5071796;28;20064;-74
2022/01/10 01:34:15;;;;;;;23.38;5.05;;;6.00;99.90;;;;;;5072113;28;20052;-73
2022/01/10 01:36:45;;;;;;;23.67;5.63;;;6.00;99.90;;;;;;5071498;28;20107;-74
2022/01/10 01:39:19;;;;;;;24.48;4.90;;;6.10;99.90;;;;;;5071862;28;20104;-74
2022/01/10 01:41:45;;;;;;;25.75;5.07;;;6.10;99.90;;;;;;5072023;28;20028;-74
2022/01/10 01:44:11;;;;;;;21.42;4.22;;;6.00;99.90;;;;;;5072088;28;20474;-74
2022/01/10 01:46:38;;;;;;;21.67;4.75;;;6.10;99.90;;;;;;5072312;28;20073;-74
2022/01/10 01:49:05;;;;;;;23.85;4.88;;;6.10;99.90;;;;;;5072610;28;20413;-74
2022/01/10 01:51:31;;;;;;;26.30;5.15;;;6.10;99.90;;;;;;5072777;28;20060;-74
2022/01/10 01:53:57;;;;;;;37.70;5.50;;;6.10;99.90;;;;;;5071700;28;20105;-74
2022/01/10 01:56:23;;;;;;;30.00;5.38;;;6.20;99.90;;;;;;5071575;28;20059;-76
2022/01/10 01:58:52;;;;;;;28.45;5.30;;;6.20;99.90;;;;;;5071737;28;20020;-76
2022/01/10 02:01:18;;;;;;;21.75;4.45;;;6.20;99.90;;;;;;5072084;28;20033;-74
2022/01/10 02:03:45;;;;;;;20.77;4.55;;;6.20;99.90;;;;;;5070958;28;20025;-75
2022/01/10 02:06:10;;;;;;;24.90;5.00;;;6.20;99.90;;;;;;5076191;28;20055;-75
2022/01/10 02:08:38;;;;;;;32.28;5.70;;;6.20;99.90;;;;;;5077904;28;20045;-75
2022/01/10 02:11:06;;;;;;;21.05;4.80;;;6.20;99.90;;;;;;5073344;28;20103;-74
2022/01/10 02:13:31;;;;;;;24.00;5.10;;;6.20;99.90;;;;;;5071954;28;20056;-74
2022/01/10 02:16:00;;;;;;;31.27;6.35;;;6.20;99.90;;;;;;5072352;28;20052;-75
2022/01/10 02:18:27;;;;;;;19.30;4.32;;;6.20;99.90;;;;;;5075370;28;20016;-75
2022/01/10 02:20:52;;;;;;;26.67;4.95;;;6.20;99.90;;;;;;5079948;28;20286;-74
2022/01/10 02:23:19;;;;;;;23.10;5.15;;;6.30;99.90;;;;;;5081945;28;20024;-76
2022/01/10 02:25:46;;;;;;;33.20;6.20;;;6.20;99.90;;;;;;5076145;28;20055;-74
2022/01/10 02:28:12;;;;;;;29.60;4.72;;;6.20;99.90;;;;;;5074985;28;20100;-74
2022/01/10 02:30:39;;;;;;;25.90;5.15;;;6.20;99.90;;;;;;5075048;28;20392;-75
2022/01/10 02:33:06;;;;;;;27.90;5.32;;;6.20;99.90;;;;;;5073605;28;20029;-75
2022/01/10 02:35:37;;;;;;;30.05;5.88;;;6.20;99.90;;;;;;5074677;28;20544;-74
2022/01/10 02:38:04;;;;;;;27.98;5.82;;;6.10;99.90;;;;;;5074625;28;20025;-74
2022/01/10 02:40:31;;;;;;;24.40;6.28;;;6.20;99.90;;;;;;5074709;28;20036;-73
2022/01/10 02:42:58;;;;;;;21.48;5.10;;;6.20;99.90;;;;;;5074880;28;20029;-75
2022/01/10 02:45:24;;;;;;;26.77;5.93;;;6.20;99.90;;;;;;5074435;28;20436;-75
2022/01/10 02:47:50;;;;;;;27.55;6.15;;;6.20;99.90;;;;;;5073982;28;20094;-75
2022/01/10 02:50:18;;;;;;;24.67;5.43;;;6.20;99.90;;;;;;5075132;28;20071;-73
2022/01/10 02:52:43;;;;;;;27.85;5.18;;;6.20;99.90;;;;;;5076312;28;20397;-74
2022/01/10 02:55:11;;;;;;;20.67;4.75;;;6.20;99.90;;;;;;5083518;28;20024;-75
2022/01/10 02:57:37;;;;;;;31.60;6.13;;;6.20;99.90;;;;;;5082634;28;20024;-73
2022/01/10 03:00:11;;;;;;;34.92;6.40;;;6.30;99.90;;;;;;5081596;28;20025;-74
2022/01/10 03:02:37;;;;;;;30.63;5.45;;;6.30;99.90;;;;;;5083316;28;20051;-74
2022/01/10 03:05:04;;;;;;;22.40;5.10;;;6.30;99.90;;;;;;5081909;28;20028;-74
2022/01/10 03:07:30;;;;;;;24.58;5.80;;;6.30;99.90;;;;;;5082763;28;20025;-73
2022/01/10 03:09:57;;;;;;;18.00;5.72;;;6.30;99.90;;;;;;5083373;28;20028;-74
2022/01/10 03:12:23;;;;;;;30.05;6.07;;;6.30;99.90;;;;;;5084156;28;20051;-74
2022/01/10 03:14:49;;;;;;;36.55;6.13;;;6.30;99.90;;;;;;5082947;28;20435;-74
2022/01/10 03:17:14;;;;;;;27.25;5.22;;;6.30;99.90;;;;;;5080699;28;20032;-74
2022/01/10 03:19:41;;;;;;;25.98;5.90;;;6.20;99.90;;;;;;5073076;28;20031;-74
2022/01/10 03:22:08;;;;;;;27.88;5.70;;;6.20;99.90;;;;;;5074768;28;20484;-73
2022/01/10 03:24:34;;;;;;;24.77;4.65;;;6.20;99.90;;;;;;5074142;28;20024;-75
2022/01/10 03:27:00;;;;;;;28.58;5.57;;;6.20;99.90;;;;;;5073502;28;20032;-74
2022/01/10 03:29:26;;;;;;;30.80;5.05;;;6.20;99.90;;;;;;5073605;28;20107;-74
2022/01/10 03:31:52;;;;;;;30.65;6.22;;;6.20;99.90;;;;;;5073539;28;20043;-73
2022/01/10 03:34:18;;;;;;;31.10;5.70;;;6.20;99.90;;;;;;5073830;28;20020;-73
2022/01/10 03:36:44;;;;;;;30.15;6.32;;;6.20;99.90;;;;;;5071920;28;20016;-75
2022/01/10 03:39:11;;;;;;;42.97;10.68;;;6.20;99.90;;;;;;5074116;28;20079;-74
2022/01/10 03:41:37;;;;;;;55.35;15.55;;;6.10;99.90;;;;;;5074771;28;20440;-75
2022/01/10 03:44:04;;;;;;;71.47;19.58;;;6.10;99.90;;;;;;5079526;28;20055;-76
2022/01/10 03:46:32;;;;;;;68.68;17.08;;;6.00;99.90;;;;;;5082733;28;20029;-78
2022/01/10 03:48:59;;;;;;;65.13;17.40;;;5.90;99.90;;;;;;5088510;28;20107;-77
2022/01/10 03:51:25;;;;;;;53.13;15.20;;;5.90;99.90;;;;;;5080167;28;20044;-77
2022/01/10 03:53:50;;;;;;;63.15;15.55;;;5.80;99.90;;;;;;5078524;28;20017;-78
2022/01/10 03:56:16;;;;;;;57.88;15.70;;;5.70;99.90;;;;;;5079298;28;20024;-77
2022/01/10 03:58:42;;;;;;;64.28;14.82;;;5.60;99.90;;;;;;5079227;28;20074;-79
2022/01/10 04:01:09;;;;;;;47.67;12.68;;;5.50;99.90;;;;;;5079372;28;20025;-77
2022/01/10 04:03:37;;;;;;;41.63;11.77;;;5.50;99.90;;;;;;5078560;28;20020;-77
2022/01/10 04:06:03;;;;;;;23.15;10.48;;;5.40;99.90;;;;;;5075348;28;20500;-78
2022/01/10 04:08:28;;;;;;;25.58;11.68;;;5.30;99.90;;;;;;5081711;28;20024;-78
2022/01/10 04:10:54;;;;;;;27.27;11.65;;;5.40;99.90;;;;;;5077031;28;20024;-77
2022/01/10 04:13:20;;;;;;;24.35;11.52;;;5.20;99.90;;;;;;5078627;28;20485;-78
2022/01/10 04:15:46;;;;;;;24.80;11.85;;;5.20;99.90;;;;;;5079813;28;20017;-78
2022/01/10 04:18:11;;;;;;;22.73;10.55;;;5.20;99.90;;;;;;5078393;28;20024;-78
2022/01/10 04:20:37;;;;;;;19.52;11.10;;;5.20;99.90;;;;;;5077790;28;20521;-77
2022/01/10 04:23:03;;;;;;;20.80;11.75;;;5.10;99.90;;;;;;5077315;28;20024;-77
2022/01/10 04:25:28;;;;;;;20.02;11.27;;;5.10;99.90;;;;;;5084773;28;20024;-78
2022/01/10 04:27:54;;;;;;;20.42;11.43;;;5.10;99.90;;;;;;5091882;28;20472;-77
2022/01/10 04:30:20;;;;;;;20.33;11.63;;;5.10;99.90;;;;;;5092762;28;20131;-77
2022/01/10 04:32:46;;;;;;;18.35;12.00;;;5.00;99.90;;;;;;5077119;28;20032;-73
2022/01/10 04:35:12;;;;;;;18.13;12.10;;;5.00;99.90;;;;;;5073060;28;20409;-72
2022/01/10 04:37:38;;;;;;;15.63;11.90;;;5.00;99.90;;;;;;5072968;28;20370;-73
2022/01/10 04:40:06;;;;;;;17.48;11.82;;;5.00;99.90;;;;;;5105211;22;20427;-74
2022/01/10 04:42:32;;;;;;;17.25;12.90;;;5.00;99.90;;;;;;5087645;28;20431;-75
2022/01/10 04:44:57;;;;;;;19.05;12.15;;;5.00;99.90;;;;;;5079159;28;20130;-76
2022/01/10 04:47:23;;;;;;;20.20;12.40;;;5.00;99.90;;;;;;5079344;28;20028;-76
2022/01/10 04:52:30;;;;;;;20.00;12.55;;;4.90;99.90;;;;;;5076937;28;20099;-77
2022/01/10 04:54:56;;;;;;;17.80;13.00;;;4.90;99.90;;;;;;5075125;28;20024;-77
2022/01/10 04:57:22;;;;;;;23.80;14.50;;;4.90;99.90;;;;;;5074642;28;20017;-75
2022/01/10 04:59:48;;;;;;;20.08;13.27;;;4.90;99.90;;;;;;5056074;28;20134;-76
2022/01/10 05:02:14;;;;;;;21.70;14.43;;;4.90;99.90;;;;;;5056031;28;20476;-76
2022/01/10 05:04:39;;;;;;;21.88;14.27;;;4.90;99.90;;;;;;5073858;28;20078;-76
2022/01/10 05:07:05;;;;;;;21.80;13.55;;;4.90;99.90;;;;;;5055303;28;20028;-75
2022/01/10 05:09:30;;;;;;;21.60;13.48;;;4.90;99.90;;;;;;5073991;28;20503;-75
2022/01/10 05:11:56;;;;;;;22.05;13.65;;;4.90;99.90;;;;;;5073567;28;20032;-74
2022/01/10 05:14:22;;;;;;;24.35;15.23;;;4.90;99.90;;;;;;5081677;28;20027;-76
2022/01/10 05:16:48;;;;;;;21.75;14.00;;;4.90;99.90;;;;;;5077789;28;20017;-76
2022/01/10 05:19:14;;;;;;;26.65;14.35;;;4.90;99.90;;;;;;5078437;28;20521;-75
2022/01/10 05:21:40;;;;;;;24.80;15.38;;;4.90;99.90;;;;;;5056537;28;20025;-76
2022/01/10 05:24:07;;;;;;;21.70;13.27;;;4.90;99.90;;;;;;5074150;28;20115;-74
2022/01/10 05:26:33;;;;;;;18.95;13.55;;;4.90;99.90;;;;;;5057916;28;20036;-76
2022/01/10 05:29:00;;;;;;;19.90;13.50;;;4.90;99.90;;;;;;5074814;28;20066;-75
2022/01/10 05:31:27;;;;;;;19.95;13.95;;;4.90;99.90;;;;;;5056063;28;20045;-75
2022/01/10 05:33:52;;;;;;;20.95;14.20;;;4.90;99.90;;;;;;5073275;28;20017;-74
2022/01/10 05:36:18;;;;;;;19.70;14.35;;;4.90;99.90;;;;;;5054736;28;20065;-75
2022/01/10 05:38:44;;;;;;;22.40;14.57;;;4.90;99.90;;;;;;5073020;28;20027;-75
2022/01/10 05:41:09;;;;;;;23.52;15.38;;;4.90;99.90;;;;;;5072646;28;20490;-75
2022/01/10 05:43:35;;;;;;;22.17;15.48;;;4.90;99.90;;;;;;5072644;28;20024;-75
2022/01/10 05:46:03;;;;;;;21.13;15.40;;;4.90;99.90;;;;;;5072048;28;20071;-75
2022/01/10 05:48:30;;;;;;;23.33;15.60;;;4.90;99.90;;;;;;5072601;28;20044;-76
2022/01/10 05:50:56;;;;;;;22.35;15.48;;;4.90;99.90;;;;;;5072917;28;20088;-76
2022/01/10 05:53:22;;;;;;;22.80;16.25;;;4.90;99.90;;;;;;5072873;28;20090;-76
2022/01/10 05:55:48;;;;;;;20.45;14.90;;;4.90;99.90;;;;;;5073731;28;20446;-76
2022/01/10 05:58:15;;;;;;;20.77;14.68;;;4.90;99.90;;;;;;5080945;28;20052;-76
2022/01/10 06:00:41;;;;;;;24.60;16.27;;;5.00;99.90;;;;;;5078726;28;20442;-76
2022/01/10 06:03:07;;;;;;;27.40;16.75;;;5.00;99.90;;;;;;5077214;28;20095;-76
2022/01/10 06:05:33;;;;;;;22.77;15.63;;;5.10;99.90;;;;;;5077170;28;20105;-76
2022/01/10 06:08:00;;;;;;;25.33;17.65;;;5.00;99.90;;;;;;5083306;28;20051;-76
2022/01/10 06:10:27;;;;;;;24.42;16.70;;;5.00;99.90;;;;;;5081090;28;20504;-76
2022/01/10 06:12:52;;;;;;;26.77;17.33;;;5.10;99.90;;;;;;5081326;28;20439;-75
2022/01/10 06:15:18;;;;;;;23.52;16.40;;;5.10;99.90;;;;;;5082220;28;20171;-77
2022/01/10 06:17:44;;;;;;;22.98;15.45;;;5.10;99.90;;;;;;5084533;28;20013;-76
2022/01/10 06:20:10;;;;;;;27.90;16.83;;;5.10;99.90;;;;;;5061307;28;20088;-76
2022/01/10 06:22:36;;;;;;;22.20;15.77;;;5.10;99.90;;;;;;5068574;28;20024;-78
2022/01/10 06:25:03;;;;;;;21.27;15.25;;;5.10;99.90;;;;;;5076323;28;20048;-77
2022/01/10 06:27:29;;;;;;;26.95;18.13;;;5.10;99.90;;;;;;5086372;28;20032;-78
2022/01/10 06:29:54;;;;;;;25.30;16.77;;;5.10;99.90;;;;;;5068956;28;20052;-77
2022/01/10 06:32:20;;;;;;;23.10;16.58;;;5.10;99.90;;;;;;5086258;28;20028;-77
2022/01/10 06:34:46;;;;;;;25.23;17.88;;;5.10;99.90;;;;;;5088544;28;20080;-76
2022/01/10 06:37:11;;;;;;;26.63;18.08;;;5.10;99.90;;;;;;5086535;28;20024;-76
2022/01/10 06:39:38;;;;;;;31.67;19.52;;;5.10;99.90;;;;;;5087942;28;20027;-77
2022/01/10 06:42:04;;;;;;;30.70;20.73;;;5.00;99.90;;;;;;5084419;28;20060;-76
2022/01/10 06:44:30;;;;;;;29.60;18.65;;;5.00;99.90;;;;;;5079366;28;20028;-76
2022/01/10 06:46:56;;;;;;;30.45;18.50;;;5.00;99.90;;;;;;5076750;28;20024;-76
2022/01/10 06:49:21;;;;;;;25.95;17.63;;;5.00;99.90;;;;;;5077029;28;20034;-76
2022/01/10 06:51:47;;;;;;;30.80;18.77;;;5.00;99.90;;;;;;5075947;28;20056;-77
2022/01/10 06:54:13;;;;;;;32.28;20.10;;;5.00;99.90;;;;;;5075688;28;20380;-76
2022/01/10 06:56:38;;;;;;;28.17;18.70;;;5.00;99.90;;;;;;5059093;28;20540;-76
2022/01/10 06:59:04;;;;;;;29.73;19.63;;;4.90;99.90;;;;;;5076616;28;20100;-76
2022/01/10 07:01:29;;;;;;;29.33;20.33;;;4.90;99.90;;;;;;5078561;28;20029;-77
2022/01/10 07:03:57;;;;;;;29.70;19.55;;;4.90;99.90;;;;;;5078248;28;20465;-75
2022/01/10 07:06:23;;;;;;;31.75;20.45;;;4.90;99.90;;;;;;5080402;28;20072;-77
2022/01/10 07:08:48;;;;;;;29.92;20.17;;;4.90;99.90;;;;;;5086702;28;20028;-77
2022/01/10 07:11:14;;;;;;;32.28;20.67;;;4.90;99.90;;;;;;5092986;28;20033;-78
2022/01/10 07:13:40;;;;;;;32.65;20.45;;;4.90;99.90;;;;;;5077953;28;20021;-77
2022/01/10 07:16:05;;;;;;;29.08;20.25;;;4.90;99.90;;;;;;5075957;28;20024;-76
2022/01/10 07:18:32;;;;;;;30.80;21.25;;;4.90;99.90;;;;;;5076451;28;20017;-76
2022/01/10 07:20:57;;;;;;;29.17;20.48;;;4.80;99.90;;;;;;5078067;28;20117;-76
2022/01/10 07:23:23;;;;;;;31.13;20.38;;;4.80;99.90;;;;;;5078477;28;20049;-76
2022/01/10 07:25:49;;;;;;;33.58;20.73;;;4.90;99.90;;;;;;5058924;28;20481;-76
2022/01/10 07:28:15;;;;;;;30.75;21.23;;;4.80;99.90;;;;;;5077428;28;20031;-76
2022/01/10 07:30:41;;;;;;;32.80;21.25;;;4.80;99.90;;;;;;5077456;28;20024;-76
2022/01/10 07:33:06;;;;;;;30.08;20.40;;;4.80;99.90;;;;;;5059080;28;20028;-77
2022/01/10 07:35:32;;;;;;;28.50;19.52;;;4.80;99.90;;;;;;5076090;28;20055;-77
2022/01/10 07:37:57;;;;;;;34.03;21.42;;;4.80;99.90;;;;;;5077776;28;20524;-76
2022/01/10 07:40:24;;;;;;;32.05;21.20;;;4.80;99.90;;;;;;5077417;28;20029;-76
2022/01/10 07:42:50;;;;;;;35.45;21.15;;;4.80;99.90;;;;;;5083556;28;20024;-76
2022/01/10 07:45:15;;;;;;;33.00;21.55;;;4.80;99.90;;;;;;5087027;28;20390;-76
2022/01/10 07:47:42;;;;;;;33.65;21.02;;;4.90;99.90;;;;;;5075955;28;20020;-76
2022/01/10 07:50:08;;;;;;;31.95;20.88;;;4.90;99.90;;;;;;5075886;28;20033;-76
2022/01/10 07:52:34;;;;;;;28.58;19.58;;;4.90;99.90;;;;;;5085521;28;20092;-76
2022/01/10 07:55:00;;;;;;;27.40;19.38;;;5.00;99.90;;;;;;5093545;28;20021;-75
2022/01/10 07:57:26;;;;;;;29.92;19.60;;;5.00;99.90;;;;;;5069554;28;20111;-76
2022/01/10 07:59:51;;;;;;;27.30;18.80;;;5.00;99.90;;;;;;5057020;28;20466;-75
2022/01/10 08:02:20;;;;;;;29.55;20.67;;;5.00;99.90;;;;;;5074037;28;20107;-77
2022/01/10 08:04:46;;;;;;;36.38;21.05;;;5.10;99.90;;;;;;5074133;28;20020;-76
2022/01/10 08:07:11;;;;;;;29.73;19.55;;;5.00;99.90;;;;;;5074009;28;20079;-77
2022/01/10 08:09:37;;;;;;;32.17;21.67;;;5.00;99.90;;;;;;5074953;28;20036;-75
2022/01/10 08:12:03;;;;;;;31.30;21.15;;;5.00;99.90;;;;;;5076161;28;20381;-77
2022/01/10 08:14:30;;;;;;;31.45;20.65;;;5.00;99.90;;;;;;5075451;28;20032;-76
2022/01/10 08:16:57;;;;;;;31.30;20.40;;;5.00;99.90;;;;;;5077092;28;20098;-76
2022/01/10 08:19:23;;;;;;;34.35;22.73;;;5.00;99.90;;;;;;5076664;28;20020;-78
2022/01/10 08:21:49;;;;;;;39.78;23.35;;;5.00;99.90;;;;;;5075701;28;20036;-77
2022/01/10 08:24:15;;;;;;;35.35;22.67;;;5.00;99.90;;;;;;5075997;28;20028;-78
2022/01/10 08:26:41;;;;;;;35.05;23.83;;;5.00;99.90;;;;;;5076495;28;20070;-77
2022/01/10 08:29:08;;;;;;;31.50;21.38;;;5.10;99.90;;;;;;5077747;28;20103;-76
2022/01/10 08:31:34;;;;;;;34.72;22.17;;;5.00;99.90;;;;;;5078733;28;20439;-79
2022/01/10 08:34:01;;;;;;;30.77;20.58;;;5.00;99.90;;;;;;5078539;28;20020;-79
2022/01/10 08:36:28;;;;;;;31.63;20.77;;;5.00;99.90;;;;;;5082357;28;20020;-78
2022/01/10 08:38:54;;;;;;;29.65;20.38;;;5.10;99.90;;;;;;5061282;28;20017;-78
2022/01/10 08:41:20;;;;;;;31.65;20.73;;;5.10;99.90;;;;;;5075638;28;20036;-78
2022/01/10 08:43:46;;;;;;;31.52;21.08;;;5.10;99.90;;;;;;5075665;28;20036;-76
2022/01/10 08:46:11;;;;;;;34.08;21.60;;;5.10;99.90;;;;;;5075923;28;20029;-76
2022/01/10 08:48:37;;;;;;;35.80;23.30;;;5.10;99.90;;;;;;5076292;28;20032;-76
2022/01/10 08:51:03;;;;;;;39.38;24.73;;;5.10;99.90;;;;;;5073699;28;20109;-75
2022/01/10 08:53:28;;;;;;;39.40;23.80;;;5.10;99.90;;;;;;5072909;28;20033;-74
2022/01/10 08:55:54;;;;;;;44.38;24.52;;;5.20;99.90;;;;;;5073069;28;20021;-75
2022/01/10 08:58:21;;;;;;;35.42;23.52;;;5.10;99.90;;;;;;5080363;28;20070;-74
2022/01/10 09:00:47;;;;;;;39.45;23.73;;;5.20;99.90;;;;;;5084092;28;20023;-75
2022/01/10 09:03:13;;;;;;;35.85;23.50;;;5.20;99.90;;;;;;5065607;28;20027;-75
2022/01/10 09:05:38;;;;;;;39.65;24.80;;;5.20;99.90;;;;;;5079338;28;20124;-78
2022/01/10 09:08:05;;;;;;;44.28;27.00;;;5.30;99.90;;;;;;5074968;28;20024;-77
2022/01/10 09:10:31;;;;;;;39.47;25.63;;;5.30;99.90;;;;;;5074309;28;20020;-78
2022/01/10 09:12:57;;;;;;;49.97;26.20;;;5.30;99.90;;;;;;5055907;28;20024;-75
2022/01/10 09:15:23;;;;;;;42.03;26.27;;;5.30;99.90;;;;;;5073380;28;20016;-75
2022/01/10 09:17:49;;;;;;;46.63;27.23;;;5.30;99.90;;;;;;5073118;28;20130;-75
2022/01/10 09:20:15;;;;;;;45.80;27.13;;;5.40;99.90;;;;;;5072831;28;20025;-74
2022/01/10 09:22:41;;;;;;;47.20;28.63;;;5.40;99.90;;;;;;5074196;28;20074;-75
2022/01/10 09:25:07;;;;;;;46.30;28.90;;;5.40;99.90;;;;;;5075487;28;20468;-75
2022/01/10 09:27:33;;;;;;;45.05;28.02;;;5.40;99.90;;;;;;5056573;28;20115;-75
2022/01/10 09:29:58;;;;;;;46.78;27.77;;;5.40;99.90;;;;;;5075969;28;20059;-76
2022/01/10 09:32:24;;;;;;;53.63;30.90;;;5.50;99.90;;;;;;5078391;28;20432;-75
2022/01/10 09:34:50;;;;;;;54.05;29.05;;;5.50;99.90;;;;;;5077479;28;20041;-75
2022/01/10 09:37:15;;;;;;;49.20;28.40;;;5.50;99.90;;;;;;5059529;28;20020;-78
2022/01/10 09:39:41;;;;;;;72.50;37.92;;;5.50;99.90;;;;;;5077947;28;20024;-78
2022/01/10 09:42:07;;;;;;;72.55;38.55;;;5.60;99.90;;;;;;5059209;28;20474;-77
2022/01/10 09:44:34;;;;;;;60.25;32.72;;;5.60;99.90;;;;;;5077223;28;20109;-78
2022/01/10 09:47:00;;;;;;;62.55;33.92;;;5.70;99.90;;;;;;5076770;28;20040;-77
2022/01/10 09:49:26;;;;;;;59.63;32.67;;;5.70;99.90;;;;;;5077046;28;20496;-77
2022/01/10 09:51:52;;;;;;;59.25;33.15;;;5.80;99.90;;;;;;5077864;28;20048;-77
2022/01/10 09:54:17;;;;;;;63.45;33.33;;;5.90;99.90;;;;;;5076666;28;20470;-77
2022/01/10 09:56:47;;;;;;;61.33;34.42;;;5.90;99.90;;;;;;5076236;28;20096;-77
2022/01/10 09:59:14;;;;;;;62.53;34.28;;;6.00;99.90;;;;;;5076322;28;20017;-77
2022/01/10 10:01:40;;;;;;;73.85;36.85;;;6.00;99.90;;;;;;5076113;28;20020;-77
2022/01/10 10:04:05;;;;;;;78.25;38.65;;;6.10;99.90;;;;;;5079307;28;20032;-77
2022/01/10 10:06:32;;;;;;;67.03;35.88;;;6.20;99.90;;;;;;5078311;28;20035;-77
2022/01/10 10:09:01;;;;;;;69.15;36.92;;;6.20;99.90;;;;;;5078086;28;20366;-77
2022/01/10 10:11:42;;;;;;;70.70;36.38;;;6.30;99.90;;;;;;5059383;28;20048;-76
2022/01/10 10:14:09;;;;;;;70.05;36.42;;;6.30;99.90;;;;;;5077620;28;20103;-76
2022/01/10 10:16:36;;;;;;;74.50;38.15;;;6.30;99.90;;;;;;5061842;28;20028;-77
2022/01/10 10:19:03;;;;;;;69.47;35.97;;;6.40;99.90;;;;;;5080292;28;20036;-76
2022/01/10 10:21:32;;;;;;;68.80;36.40;;;6.30;99.90;;;;;;5078989;28;20036;-78
2022/01/10 10:23:58;;;;;;;71.78;37.20;;;6.40;99.90;;;;;;5082730;28;20107;-77
2022/01/10 10:26:25;;;;;;;72.60;37.80;;;6.40;99.90;;;;;;5088880;28;20044;-78
2022/01/10 10:28:53;;;;;;;74.13;38.15;;;6.40;99.90;;;;;;5098410;28;20115;-79
2022/01/10 10:31:34;;;;;;;74.70;37.33;;;6.50;99.90;;;;;;5100352;28;20031;-77
2022/01/10 10:34:02;;;;;;;80.65;40.10;;;6.50;99.90;;;;;;5092110;28;20077;-78
2022/01/10 10:36:31;;;;;;;75.43;38.10;;;6.50;99.90;;;;;;5092382;28;20017;-78
2022/01/10 10:38:58;;;;;;;80.72;39.00;;;6.50;99.90;;;;;;5098112;28;20009;-77
2022/01/10 10:41:24;;;;;;;80.65;38.58;;;6.40;99.90;;;;;;5098054;28;20037;-78
2022/01/10 10:43:51;;;;;;;78.03;38.78;;;6.40;99.90;;;;;;5098282;28;20032;-76
2022/01/10 10:46:18;;;;;;;77.40;39.00;;;6.40;99.90;;;;;;5081304;28;20020;-76
2022/01/10 10:48:59;;;;;;;80.28;39.45;;;6.20;99.90;;;;;;5097837;28;20039;-76
2022/01/10 10:51:30;;;;;;;78.38;38.17;;;6.20;99.90;;;;;;5096804;28;20032;-77
2022/01/10 10:54:06;;;;;;;79.93;41.33;;;6.20;99.90;;;;;;5095743;28;20036;-76
2022/01/10 10:56:34;;;;;;;80.20;40.15;;;6.20;99.90;;;;;;5095912;28;20009;-77
2022/01/10 10:59:00;;;;;;;81.97;41.15;;;6.20;99.90;;;;;;5094824;28;20024;-77
2022/01/10 11:01:26;;;;;;;82.75;40.95;;;6.30;99.90;;;;;;5093514;28;20028;-76
2022/01/10 11:03:51;;;;;;;82.45;41.33;;;6.30;99.90;;;;;;5096836;28;20027;-77
2022/01/10 11:06:18;;;;;;;83.47;40.05;;;6.30;99.90;;;;;;5082286;28;20013;-77
2022/01/10 11:08:44;;;;;;;77.75;39.00;;;6.30;99.90;;;;;;5082466;28;20059;-78
2022/01/10 11:11:21;;;;;;;77.40;38.97;;;6.40;99.90;;;;;;5098408;28;20096;-77
2022/01/10 11:13:48;;;;;;;80.05;39.50;;;6.60;99.90;;;;;;5060290;28;20021;-78
2022/01/10 11:16:14;;;;;;;71.78;36.72;;;6.70;99.90;;;;;;5078150;28;20017;-78
2022/01/10 11:18:40;;;;;;;76.75;37.58;;;6.80;99.90;;;;;;5062816;28;20144;-77
2022/01/10 11:21:06;;;;;;;79.43;37.42;;;6.80;99.90;;;;;;5081492;28;20021;-77
2022/01/10 11:23:38;;;;;;;78.40;38.58;;;6.90;99.90;;;;;;5085224;28;20020;-77
2022/01/10 11:26:06;;;;;;;80.55;39.35;;;6.90;99.90;;;;;;5091047;28;20039;-77
2022/01/10 11:28:31;;;;;;;77.43;37.55;;;6.90;99.90;;;;;;5077168;28;20376;-77
2022/01/10 11:31:03;;;;;;;75.30;37.28;;;6.80;99.90;;;;;;5078237;28;20096;-77
2022/01/10 11:33:35;;;;;;;98.93;47.38;;;6.80;99.90;;;;;;5079290;28;20020;-77
2022/01/10 11:36:07;;;;;;;81.43;37.50;;;6.90;99.90;;;;;;5080024;28;20036;-77
2022/01/10 11:38:38;;;;;;;85.68;40.30;;;6.90;99.90;;;;;;5068311;28;20393;-77
2022/01/10 11:41:08;;;;;;;82.95;38.08;;;6.90;99.90;;;;;;5082551;28;20035;-77
2022/01/10 11:43:43;;;;;;;77.82;37.00;;;6.80;99.90;;;;;;5082824;28;20025;-76
2022/01/10 11:46:09;;;;;;;89.55;40.17;;;6.70;99.90;;;;;;5062033;28;20066;-77
2022/01/10 11:48:59;;;;;;;81.20;40.50;;;6.70;99.90;;;;;;5082731;28;20020;-78
2022/01/10 11:51:37;;;;;;;86.60;40.17;;;6.70;99.90;;;;;;5094038;28;20046;-76
2022/01/10 11:54:14;;;;;;;98.28;41.60;;;6.70;99.90;;;;;;5057345;28;20020;-77
2022/01/10 11:56:42;;;;;;;98.40;43.38;;;6.70;99.90;;;;;;5059121;28;20425;-78
2022/01/10 11:59:19;;;;;;;97.97;44.40;;;6.70;99.90;;;;;;5060427;28;20017;-77
2022/01/10 12:02:10;;;;;;;99.78;43.72;;;6.60;99.90;;;;;;5077354;28;20107;-76
2022/01/10 12:04:38;;;;;;;111.13;46.55;;;6.60;99.90;;;;;;5076214;28;20021;-76
2022/01/10 12:07:09;;;;;;;94.70;43.70;;;6.50;99.90;;;;;;5076350;28;20032;-77
2022/01/10 12:09:36;;;;;;;107.35;46.65;;;6.50;99.90;;;;;;5078699;28;20100;-76
2022/01/10 12:12:03;;;;;;;104.03;45.67;;;6.50;99.90;;;;;;5087329;28;20056;-77
2022/01/10 12:14:30;;;;;;;118.30;52.80;;;6.50;99.90;;;;;;5091255;28;20021;-77
2022/01/10 12:16:57;;;;;;;115.28;48.05;;;6.50;99.90;;;;;;5088278;28;20458;-79
2022/01/10 12:19:23;;;;;;;97.28;45.05;;;6.60;99.90;;;;;;5077676;28;20016;-77
2022/01/10 12:21:50;;;;;;;103.50;45.78;;;6.50;99.90;;;;;;5078143;28;20164;-76
2022/01/10 12:24:17;;;;;;;103.57;45.80;;;6.50;99.90;;;;;;5058408;28;20027;-78
2022/01/10 12:26:43;;;;;;;96.57;43.90;;;6.60;99.90;;;;;;5079585;28;20241;-76
2022/01/10 12:29:10;;;;;;;95.40;43.85;;;6.50;99.90;;;;;;5079656;28;20127;-76
2022/01/10 12:31:38;;;;;;;92.40;43.33;;;6.50;99.90;;;;;;5059619;28;20028;-77
2022/01/10 12:34:05;;;;;;;96.57;43.83;;;6.50;99.90;;;;;;5075242;28;20017;-77
2022/01/10 12:36:32;;;;;;;88.70;42.85;;;6.50;99.90;;;;;;5090219;28;20044;-78
2022/01/10 12:39:03;;;;;;;86.13;42.63;;;6.50;99.90;;;;;;5071572;28;20108;-76
2022/01/10 12:41:30;;;;;;;90.13;41.47;;;6.50;99.90;;;;;;5076313;28;20024;-77
2022/01/10 12:43:56;;;;;;;83.85;39.75;;;6.50;99.90;;;;;;5094362;28;20031;-78
2022/01/10 12:46:23;;;;;;;82.55;38.67;;;6.50;99.90;;;;;;5082525;28;20025;-78
2022/01/10 12:48:50;;;;;;;79.78;40.90;;;6.40;99.90;;;;;;5078784;28;20028;-77